createdAt,value
2023-05-05T00:00:45.261Z,52.70
2023-05-05T00:03:16.222Z,52.75
2023-05-05T00:05:47.505Z,52.71
2023-05-05T00:08:19.211Z,52.70
2023-05-05T00:10:50.770Z,52.58
2023-05-05T00:13:22.649Z,52.75
2023-05-05T00:15:54.676Z,52.72
2023-05-05T00:18:25.422Z,52.74
2023-05-05T00:20:56.375Z,52.85
2023-05-05T00:27:08.739Z,52.80
2023-05-05T00:29:39.518Z,52.72
2023-05-05T00:32:10.472Z,52.83
2023-05-05T00:34:41.223Z,52.85
2023-05-05T00:37:12.458Z,52.73
2023-05-05T00:39:43.191Z,52.63
2023-05-05T00:42:13.828Z,53.01
2023-05-05T00:44:46.069Z,52.84
2023-05-05T00:47:17.812Z,52.96
2023-05-05T00:49:48.502Z,52.97
2023-05-05T00:52:19.338Z,53.05
2023-05-05T00:54:50.389Z,52.82
2023-05-05T00:57:21.677Z,52.92
2023-05-05T00:59:52.976Z,52.93
2023-05-05T01:02:24.029Z,52.88
2023-05-05T01:04:55.590Z,53.07
2023-05-05T01:07:34.061Z,52.95
2023-05-05T01:10:19.666Z,53.02
2023-05-05T01:13:03.668Z,53.07
2023-05-05T01:15:37.600Z,53.11
2023-05-05T01:18:10.963Z,53.12
2023-05-05T01:20:50.618Z,53.06
2023-05-05T01:23:48.928Z,53.07
2023-05-05T01:26:37.103Z,53.06
2023-05-05T01:29:28.214Z,53.21
2023-05-05T01:32:02.542Z,53.16
2023-05-05T01:34:41.259Z,53.08
2023-05-05T01:37:19.845Z,53.24
2023-05-05T01:39:54.484Z,53.15
2023-05-05T01:42:28.359Z,53.02
2023-05-05T01:44:57.672Z,53.01
2023-05-05T01:47:30.202Z,53.09
2023-05-05T01:50:01.502Z,53.09
2023-05-05T01:52:33.439Z,53.10
2023-05-05T01:55:06.559Z,53.11
2023-05-05T01:57:40.807Z,53.15
2023-05-05T02:00:14.667Z,53.11
2023-05-05T02:02:44.604Z,53.16
2023-05-05T02:05:19.254Z,53.10
2023-05-05T02:07:51.843Z,52.92
2023-05-05T02:10:23.202Z,53.13
2023-05-05T02:12:55.234Z,53.09
2023-05-05T02:15:29.036Z,53.22
2023-05-05T02:18:01.425Z,53.12
2023-05-05T02:20:34.030Z,53.17
2023-05-05T02:23:06.081Z,53.28
2023-05-05T02:25:41.276Z,53.21
2023-05-05T02:28:18.657Z,53.12
2023-05-05T02:30:56.171Z,53.13
2023-05-05T02:33:30.519Z,53.06
2023-05-05T02:36:05.893Z,53.10
2023-05-05T02:38:39.459Z,53.34
2023-05-05T02:41:12.587Z,53.15
2023-05-05T02:43:46.387Z,53.26
2023-05-05T02:46:17.734Z,53.31
2023-05-05T02:48:48.980Z,53.22
2023-05-05T02:51:19.651Z,53.15
2023-05-05T02:53:52.395Z,53.22
2023-05-05T02:56:33.773Z,53.16
2023-05-05T02:59:10.842Z,53.05
2023-05-05T03:01:54.799Z,53.06
2023-05-05T03:04:30.578Z,53.33
2023-05-05T03:07:08.912Z,53.28
2023-05-05T03:09:44.563Z,53.27
2023-05-05T03:12:22.873Z,53.51
2023-05-05T03:14:55.438Z,53.51
2023-05-05T03:17:29.111Z,53.54
2023-05-05T03:20:02.932Z,53.46
2023-05-05T03:22:38.474Z,53.42
2023-05-05T03:25:10.604Z,53.35
2023-05-05T03:27:41.809Z,53.54
2023-05-05T03:30:14.100Z,53.58
2023-05-05T03:32:44.829Z,53.53
2023-05-05T03:35:15.727Z,53.59
2023-05-05T03:37:46.456Z,53.48
2023-05-05T03:40:17.818Z,53.53
2023-05-05T03:42:48.455Z,53.64
2023-05-05T03:45:19.440Z,53.65
2023-05-05T03:47:50.110Z,53.56
2023-05-05T03:50:20.971Z,53.50
2023-05-05T03:52:52.016Z,53.58
2023-05-05T03:55:23.149Z,53.62
2023-05-05T03:57:53.846Z,53.52
2023-05-05T04:00:24.849Z,53.30
2023-05-05T04:02:56.286Z,52.47
2023-05-05T04:05:27.556Z,52.00
2023-05-05T04:07:58.937Z,52.20
2023-05-05T04:10:30.067Z,51.73
2023-05-05T04:13:01.351Z,51.29
2023-05-05T04:15:32.573Z,51.69
2023-05-05T04:18:03.568Z,51.63
2023-05-05T04:20:36.017Z,51.61
2023-05-05T04:23:06.822Z,51.64
2023-05-05T04:25:37.659Z,51.68
2023-05-05T04:28:08.466Z,51.83
2023-05-05T04:30:39.462Z,51.92
2023-05-05T04:33:10.217Z,51.97
2023-05-05T04:35:41.079Z,51.96
2023-05-05T04:38:11.862Z,51.93
2023-05-05T04:40:42.963Z,51.97
2023-05-05T04:43:13.603Z,51.93
2023-05-05T04:45:52.972Z,51.91
2023-05-05T04:48:23.672Z,52.05
2023-05-05T04:50:54.325Z,51.80
2023-05-05T04:53:25.086Z,51.85
2023-05-05T04:55:56.183Z,51.88
2023-05-05T04:58:27.077Z,51.82
2023-05-05T05:00:57.897Z,51.91
2023-05-05T05:03:28.724Z,51.89
2023-05-05T05:05:59.530Z,51.85
2023-05-05T05:08:30.236Z,51.96
2023-05-05T05:11:01.660Z,51.79
2023-05-05T05:13:32.625Z,51.89
2023-05-05T05:16:03.790Z,51.78
2023-05-05T05:18:34.565Z,51.84
2023-05-05T05:21:05.460Z,51.74
2023-05-05T05:23:36.132Z,51.82
2023-05-05T05:26:07.406Z,51.74
2023-05-05T05:28:38.184Z,51.81
2023-05-05T05:31:09.038Z,51.79
2023-05-05T05:33:39.865Z,51.74
2023-05-05T05:36:11.020Z,51.80
2023-05-05T05:38:41.972Z,51.92
2023-05-05T05:41:12.596Z,51.94
2023-05-05T05:43:43.286Z,51.97
2023-05-05T05:46:14.017Z,52.02
2023-05-05T05:48:44.920Z,51.85
2023-05-05T05:51:15.654Z,51.93
2023-05-05T05:53:46.492Z,51.87
2023-05-05T05:56:17.525Z,51.74
2023-05-05T05:58:48.707Z,51.60
2023-05-05T06:01:19.617Z,51.67
2023-05-05T06:03:50.490Z,51.79
2023-05-05T06:06:21.309Z,51.82
2023-05-05T06:08:52.410Z,51.78
2023-05-05T06:11:24.104Z,51.63
2023-05-05T06:13:54.848Z,51.73
2023-05-05T06:16:25.821Z,51.64
2023-05-05T06:18:56.624Z,51.57
2023-05-05T06:21:27.936Z,51.62
2023-05-05T06:23:58.718Z,51.55
2023-05-05T06:26:29.759Z,51.60
2023-05-05T06:29:00.526Z,51.59
2023-05-05T06:31:31.305Z,51.72
2023-05-05T06:34:02.185Z,51.60
2023-05-05T06:36:33.414Z,51.64
2023-05-05T06:39:04.375Z,51.64
2023-05-05T06:41:35.046Z,51.70
2023-05-05T06:44:06.849Z,51.65
2023-05-05T06:46:37.525Z,51.75
2023-05-05T06:49:08.407Z,51.68
2023-05-05T06:51:40.547Z,51.57
2023-05-05T06:54:11.263Z,51.65
2023-05-05T06:56:42.172Z,51.72
2023-05-05T06:59:15.683Z,51.62
2023-05-05T07:01:46.446Z,51.61
2023-05-05T07:04:17.257Z,51.71
2023-05-05T07:06:48.127Z,51.64
2023-05-05T07:09:19.212Z,51.63
2023-05-05T07:11:50.377Z,51.70
2023-05-05T07:14:23.614Z,51.84
2023-05-05T07:16:55.321Z,51.83
2023-05-05T07:19:26.345Z,51.84
2023-05-05T07:21:57.013Z,51.82
2023-05-05T07:24:27.896Z,51.75
2023-05-05T07:26:59.276Z,51.64
2023-05-05T07:29:30.182Z,51.85
2023-05-05T07:32:00.983Z,51.64
2023-05-05T07:34:34.258Z,51.87
2023-05-05T07:37:05.338Z,51.78
2023-05-05T07:39:36.642Z,51.64
2023-05-05T07:42:07.865Z,51.91
2023-05-05T07:44:38.885Z,51.86
2023-05-05T07:47:09.912Z,51.87
2023-05-05T07:49:40.910Z,51.82
2023-05-05T07:52:11.745Z,51.88
2023-05-05T07:54:42.734Z,51.77
2023-05-05T07:57:13.608Z,51.76
2023-05-05T07:59:44.552Z,51.72
2023-05-05T08:02:15.929Z,51.77
2023-05-05T08:04:46.807Z,51.92
2023-05-05T08:07:17.704Z,51.89
2023-05-05T08:09:48.571Z,51.81
2023-05-05T08:12:19.613Z,51.87
2023-05-05T08:14:50.653Z,51.82
2023-05-05T08:17:21.360Z,51.86
2023-05-05T08:19:54.842Z,51.92
2023-05-05T08:22:26.481Z,51.83
2023-05-05T08:24:57.228Z,51.88
2023-05-05T08:27:28.037Z,51.93
2023-05-05T08:29:59.049Z,51.89
2023-05-05T08:32:29.979Z,51.94
2023-05-05T08:35:02.104Z,51.95
2023-05-05T08:37:33.452Z,51.93
2023-05-05T08:40:04.517Z,51.99
2023-05-05T08:42:39.006Z,51.85
2023-05-05T08:45:11.991Z,52.10
2023-05-05T08:47:43.639Z,52.08
2023-05-05T08:50:15.964Z,52.14
2023-05-05T08:52:51.811Z,52.00
2023-05-05T08:55:26.686Z,51.82
2023-05-05T08:58:01.182Z,51.95
2023-05-05T09:00:32.475Z,51.98
2023-05-05T09:03:04.940Z,51.83
2023-05-05T09:05:36.924Z,51.99
2023-05-05T09:08:09.745Z,51.84
2023-05-05T09:10:43.586Z,51.85
2023-05-05T09:13:19.102Z,51.99
2023-05-05T09:15:49.983Z,51.92
2023-05-05T09:18:20.749Z,51.89
2023-05-05T09:20:52.241Z,51.73
2023-05-05T09:23:23.650Z,51.85
2023-05-05T09:26:08.916Z,51.80
2023-05-05T09:28:40.378Z,51.75
2023-05-05T09:31:17.557Z,51.70
2023-05-05T09:33:49.319Z,51.74
2023-05-05T09:36:20.215Z,51.82
2023-05-05T09:39:07.822Z,51.66
2023-05-05T09:41:43.612Z,51.70
2023-05-05T09:44:16.113Z,51.76
2023-05-05T09:46:55.381Z,51.63
2023-05-05T09:49:27.222Z,51.69
2023-05-05T09:51:58.803Z,51.53
2023-05-05T09:54:32.853Z,51.70
2023-05-05T09:57:04.022Z,51.62
2023-05-05T09:59:34.835Z,51.62
2023-05-05T10:02:14.623Z,51.68
2023-05-05T10:04:45.406Z,51.65
2023-05-05T10:07:25.610Z,51.59
2023-05-05T10:09:56.534Z,51.52
2023-05-05T10:12:29.003Z,51.45
2023-05-05T10:15:02.504Z,51.44
2023-05-05T10:17:37.394Z,51.26
2023-05-05T10:20:11.622Z,51.29
2023-05-05T10:22:52.557Z,51.22
2023-05-05T10:25:31.295Z,51.40
2023-05-05T10:28:05.222Z,51.48
2023-05-05T10:30:44.434Z,51.31
2023-05-05T10:35:58.329Z,51.18
2023-05-05T10:38:32.762Z,51.21
2023-05-05T10:41:04.540Z,51.30
2023-05-05T10:43:35.500Z,51.24
2023-05-05T10:46:07.699Z,51.26
2023-05-05T10:48:43.944Z,51.25
2023-05-05T10:51:39.494Z,51.28
2023-05-05T10:54:17.722Z,51.21
2023-05-05T10:56:51.204Z,51.18
2023-05-05T10:59:43.542Z,51.30
2023-05-05T11:02:28.320Z,51.23
2023-05-05T11:05:15.337Z,51.29
2023-05-05T11:07:47.256Z,51.20
2023-05-05T11:10:20.694Z,51.15
2023-05-05T11:13:22.162Z,51.10
2023-05-05T11:15:55.291Z,51.21
2023-05-05T11:18:35.855Z,51.13
2023-05-05T11:21:20.847Z,51.19
2023-05-05T11:23:56.166Z,51.17
2023-05-05T11:26:53.424Z,51.12
2023-05-05T11:29:24.194Z,51.11
2023-05-05T11:32:15.848Z,51.15
2023-05-05T11:34:53.012Z,51.05
2023-05-05T11:37:25.386Z,51.14
2023-05-05T11:40:14.757Z,51.01
2023-05-05T11:42:45.704Z,51.05
2023-05-05T11:45:26.455Z,50.86
2023-05-05T11:48:27.353Z,50.87
2023-05-05T11:50:58.757Z,50.78
2023-05-05T11:53:30.813Z,50.83
2023-05-05T11:56:12.393Z,50.75
2023-05-05T11:58:43.438Z,50.77
2023-05-05T12:01:14.620Z,50.82
2023-05-05T12:03:46.363Z,50.68
2023-05-05T12:06:17.386Z,50.76
2023-05-05T12:08:48.441Z,50.78
2023-05-05T12:11:19.646Z,50.63
2023-05-05T12:13:50.531Z,50.85
2023-05-05T12:16:22.512Z,50.75
2023-05-05T12:19:06.901Z,50.76
2023-05-05T12:21:38.424Z,50.83
2023-05-05T12:24:13.912Z,50.84
2023-05-05T12:26:44.990Z,50.80
2023-05-05T12:29:24.706Z,50.80
2023-05-05T12:31:56.093Z,50.78
2023-05-05T12:34:27.423Z,50.73
2023-05-05T12:36:58.940Z,50.63
2023-05-05T12:39:38.500Z,50.65
2023-05-05T12:42:09.575Z,50.62
2023-05-05T12:44:40.873Z,50.70
2023-05-05T12:47:12.386Z,50.53
2023-05-05T12:49:51.048Z,50.56
2023-05-05T12:52:21.947Z,50.48
2023-05-05T12:54:57.251Z,50.50
2023-05-05T12:57:28.277Z,50.59
2023-05-05T12:59:59.756Z,50.47
2023-05-05T13:02:37.553Z,50.61
2023-05-05T13:05:10.075Z,50.35
2023-05-05T13:07:52.659Z,50.58
2023-05-05T13:10:25.084Z,50.75
2023-05-05T13:12:58.137Z,50.62
2023-05-05T13:15:29.800Z,50.47
2023-05-05T13:18:03.945Z,50.56
2023-05-05T13:20:34.666Z,50.52
2023-05-05T13:23:06.114Z,50.39
2023-05-05T13:25:37.148Z,50.50
2023-05-05T13:28:08.206Z,50.53
2023-05-05T13:30:39.045Z,50.55
2023-05-05T13:33:10.107Z,50.46
2023-05-05T13:35:41.617Z,50.51
2023-05-05T13:38:12.796Z,50.59
2023-05-05T13:40:44.002Z,50.43
2023-05-05T13:43:14.897Z,50.42
2023-05-05T13:45:45.924Z,50.51
2023-05-05T13:48:16.890Z,50.50
2023-05-05T13:50:48.525Z,50.32
2023-05-05T13:53:19.531Z,50.30
2023-05-05T13:55:50.568Z,50.26
2023-05-05T13:58:21.284Z,50.24
2023-05-05T14:00:52.439Z,50.20
2023-05-05T14:03:23.943Z,50.25
2023-05-05T14:05:54.910Z,50.09
2023-05-05T14:08:25.932Z,49.93
2023-05-05T14:10:56.788Z,49.92
2023-05-05T14:13:27.777Z,50.05
2023-05-05T14:15:58.510Z,49.99
2023-05-05T14:18:29.784Z,50.15
2023-05-05T14:21:00.964Z,49.95
2023-05-05T14:23:32.041Z,49.90
2023-05-05T14:26:03.067Z,49.93
2023-05-05T14:28:34.354Z,49.73
2023-05-05T14:31:06.108Z,49.76
2023-05-05T14:33:36.994Z,49.76
2023-05-05T14:36:09.142Z,49.63
2023-05-05T14:38:40.278Z,49.69
2023-05-05T14:41:11.170Z,49.77
2023-05-05T14:43:42.524Z,49.65
2023-05-05T14:46:13.559Z,49.74
2023-05-05T14:48:46.661Z,49.57
2023-05-05T14:51:18.048Z,49.62
2023-05-05T14:53:48.860Z,49.70
2023-05-05T14:56:21.883Z,49.59
2023-05-05T14:58:52.897Z,49.52
2023-05-05T15:01:25.047Z,49.47
2023-05-05T15:03:56.295Z,49.62
2023-05-05T15:06:28.271Z,49.56
2023-05-05T15:08:59.011Z,49.51
2023-05-05T15:11:29.654Z,49.67
2023-05-05T15:14:00.496Z,49.60
2023-05-05T15:16:32.649Z,49.44
2023-05-05T15:19:05.373Z,49.53
2023-05-05T15:21:36.103Z,49.59
2023-05-05T15:24:08.124Z,49.68
2023-05-05T15:26:38.851Z,49.89
2023-05-05T15:29:09.864Z,49.87
2023-05-05T15:31:41.666Z,49.84
2023-05-05T15:34:14.089Z,49.81
2023-05-05T15:36:44.913Z,49.34
2023-05-05T15:39:15.874Z,48.87
2023-05-05T15:41:46.675Z,48.47
2023-05-05T15:44:17.748Z,48.04
2023-05-05T15:46:50.499Z,48.17
2023-05-05T15:49:21.533Z,48.22
2023-05-05T15:51:52.254Z,48.12
2023-05-05T15:54:22.990Z,48.11
2023-05-05T15:56:55.090Z,47.96
2023-05-05T15:59:26.081Z,47.65
2023-05-05T16:01:57.135Z,47.49
2023-05-05T16:04:28.300Z,47.26
2023-05-05T16:06:59.278Z,46.83
2023-05-05T16:09:30.146Z,46.76
2023-05-05T16:12:01.390Z,46.50
2023-05-05T16:14:32.861Z,46.56
2023-05-05T16:17:04.417Z,46.07
2023-05-05T16:19:35.673Z,46.20
2023-05-05T16:22:07.784Z,46.07
2023-05-05T16:24:38.709Z,46.13
2023-05-05T16:27:09.924Z,46.17
2023-05-05T16:29:40.945Z,46.16
2023-05-05T16:32:11.891Z,46.34
2023-05-05T16:34:42.923Z,46.47
2023-05-05T16:37:13.724Z,46.51
2023-05-05T16:39:44.456Z,46.60
2023-05-05T16:42:15.234Z,46.67
2023-05-05T16:44:46.199Z,46.70
2023-05-05T16:47:17.242Z,46.73
2023-05-05T16:49:48.087Z,46.70
2023-05-05T16:52:19.727Z,46.76
2023-05-05T16:54:55.741Z,46.98
2023-05-05T16:57:27.156Z,47.05
2023-05-05T16:59:59.541Z,47.10
2023-05-05T17:02:30.696Z,47.26
2023-05-05T17:05:01.675Z,47.41
2023-05-05T17:07:32.842Z,47.46
2023-05-05T17:10:04.146Z,47.46
2023-05-05T17:12:35.399Z,47.66
2023-05-05T17:15:08.512Z,47.81
2023-05-05T17:17:42.347Z,47.68
2023-05-05T17:20:15.915Z,47.75
2023-05-05T17:22:47.290Z,48.04
2023-05-05T17:25:18.823Z,47.90
2023-05-05T17:27:50.080Z,48.34
2023-05-05T17:30:21.396Z,48.10
2023-05-05T17:32:52.731Z,48.29
2023-05-05T17:35:23.995Z,48.46
2023-05-05T17:37:55.259Z,48.55
2023-05-05T17:40:26.341Z,48.64
2023-05-05T17:42:57.508Z,48.68
2023-05-05T17:45:28.620Z,48.70
2023-05-05T17:47:59.793Z,48.66
2023-05-05T17:50:30.811Z,48.89
2023-05-05T17:53:02.293Z,48.99
2023-05-05T17:55:33.426Z,48.90
2023-05-05T17:58:04.448Z,48.78
2023-05-05T18:00:37.500Z,49.01
2023-05-05T18:03:08.878Z,48.87
2023-05-05T18:05:40.471Z,49.04
2023-05-05T18:08:11.827Z,49.00
2023-05-05T18:10:42.698Z,48.72
2023-05-05T18:13:13.919Z,48.73
2023-05-05T18:15:45.024Z,49.01
2023-05-05T18:18:16.122Z,48.59
2023-05-05T18:20:47.635Z,48.31
2023-05-05T18:23:18.550Z,48.36
2023-05-05T18:25:49.813Z,48.46
2023-05-05T18:28:20.963Z,48.54
2023-05-05T18:30:52.215Z,48.66
2023-05-05T18:33:23.228Z,48.51
2023-05-05T18:35:54.369Z,48.25
2023-05-05T18:38:25.349Z,48.33
2023-05-05T18:40:56.396Z,48.34
2023-05-05T18:43:27.949Z,48.13
2023-05-05T18:45:59.451Z,48.11
2023-05-05T18:48:30.769Z,48.02
2023-05-05T18:51:05.055Z,48.11
2023-05-05T18:53:36.208Z,48.10
2023-05-05T18:56:07.977Z,48.15
2023-05-05T18:58:39.344Z,47.87
2023-05-05T19:01:10.271Z,48.05
2023-05-05T19:03:41.623Z,48.27
2023-05-05T19:06:12.755Z,47.99
2023-05-05T19:08:43.922Z,48.00
2023-05-05T19:11:15.890Z,47.90
2023-05-05T19:13:46.881Z,47.95
2023-05-05T19:16:18.205Z,48.05
2023-05-05T19:18:49.579Z,47.96
2023-05-05T19:21:20.596Z,47.91
2023-05-05T19:23:51.674Z,47.87
2023-05-05T19:26:24.504Z,47.93
2023-05-05T19:28:56.167Z,48.00
2023-05-05T19:31:28.117Z,47.86
2023-05-05T19:34:03.456Z,47.84
2023-05-05T19:36:35.390Z,47.97
2023-05-05T19:39:07.181Z,47.94
2023-05-05T19:41:38.158Z,47.85
2023-05-05T19:44:09.385Z,47.90
2023-05-05T19:46:40.575Z,47.83
2023-05-05T19:49:12.196Z,47.81
2023-05-05T19:51:43.858Z,47.80
2023-05-05T19:54:15.344Z,47.75
2023-05-05T19:56:48.516Z,47.93
2023-05-05T19:59:19.711Z,47.67
2023-05-05T20:01:50.887Z,47.86
2023-05-05T20:04:21.919Z,47.86
2023-05-05T20:06:53.007Z,47.81
2023-05-05T20:09:23.850Z,47.74
2023-05-05T20:11:56.534Z,47.71
2023-05-05T20:14:27.731Z,47.65
2023-05-05T20:16:58.667Z,47.64
2023-05-05T20:19:29.918Z,47.69
2023-05-05T20:22:01.061Z,47.36
2023-05-05T20:24:34.105Z,47.47
2023-05-05T20:27:05.435Z,47.46
2023-05-05T20:29:38.613Z,47.40
2023-05-05T20:32:09.915Z,47.31
2023-05-05T20:34:41.086Z,47.26
2023-05-05T20:37:13.756Z,46.73
2023-05-05T20:39:45.101Z,46.62
2023-05-05T20:42:16.234Z,46.64
2023-05-05T20:44:47.162Z,46.62
2023-05-05T20:47:18.062Z,46.51
2023-05-05T20:49:49.075Z,46.43
2023-05-05T20:52:20.008Z,46.34
2023-05-05T20:54:51.189Z,46.50
2023-05-05T20:57:21.995Z,46.82
2023-05-05T20:59:53.044Z,46.68
2023-05-05T21:02:33.601Z,46.68
2023-05-05T21:05:05.247Z,46.88
2023-05-05T21:07:36.320Z,46.96
2023-05-05T21:10:09.345Z,46.82
2023-05-05T21:12:41.359Z,46.66
2023-05-05T21:15:13.731Z,46.83
2023-05-05T21:17:44.679Z,46.74
2023-05-05T21:20:16.546Z,46.76
2023-05-05T21:22:47.590Z,46.94
2023-05-05T21:25:21.569Z,46.72
2023-05-05T21:27:52.758Z,46.73
2023-05-05T21:30:24.341Z,46.79
2023-05-05T21:32:55.221Z,46.77
2023-05-05T21:35:26.242Z,47.01
2023-05-05T21:37:56.998Z,46.88
2023-05-05T21:40:27.804Z,47.08
2023-05-05T21:42:58.728Z,47.01
2023-05-05T21:45:29.883Z,47.00
2023-05-05T21:48:00.992Z,46.86
2023-05-05T21:50:31.974Z,46.89
2023-05-05T21:53:02.699Z,46.96
2023-05-05T21:55:33.535Z,46.79
2023-05-05T21:58:04.223Z,47.04
2023-05-05T22:00:35.008Z,47.07
2023-05-05T22:03:06.158Z,47.11
2023-05-05T22:05:37.214Z,47.00
2023-05-05T22:08:08.351Z,47.24
2023-05-05T22:10:40.012Z,47.17
2023-05-05T22:13:11.288Z,47.30
2023-05-05T22:15:46.524Z,47.32
2023-05-05T22:18:18.275Z,47.46
2023-05-05T22:20:49.002Z,47.62
2023-05-05T22:23:19.764Z,47.40
2023-05-05T22:25:50.577Z,47.64
2023-05-05T22:28:22.034Z,47.71
2023-05-05T22:30:52.870Z,47.65
2023-05-05T22:33:24.424Z,47.81
2023-05-05T22:35:55.457Z,47.98
2023-05-05T22:38:26.369Z,47.73
2023-05-05T22:40:57.083Z,48.00
2023-05-05T22:43:27.848Z,47.82
2023-05-05T22:45:58.483Z,47.93
2023-05-05T22:48:29.146Z,48.00
2023-05-05T22:51:00.002Z,48.09
2023-05-05T22:53:30.753Z,48.02
2023-05-05T22:56:01.493Z,47.97
2023-05-05T22:58:32.315Z,48.30
2023-05-05T23:01:02.993Z,48.17
2023-05-05T23:03:33.848Z,48.36
2023-05-05T23:06:04.741Z,48.25
2023-05-05T23:08:35.517Z,48.09
2023-05-05T23:11:06.534Z,48.31
2023-05-05T23:13:37.162Z,48.23
2023-05-05T23:16:08.693Z,48.08
2023-05-05T23:18:40.073Z,48.19
2023-05-05T23:21:11.642Z,48.20
2023-05-05T23:23:42.467Z,48.14
2023-05-05T23:26:14.084Z,48.24
2023-05-05T23:28:44.760Z,48.26
2023-05-05T23:31:15.553Z,48.27
2023-05-05T23:33:46.408Z,48.43
2023-05-05T23:36:17.009Z,48.25
2023-05-05T23:38:47.715Z,48.43
2023-05-05T23:41:18.560Z,48.38
2023-05-05T23:43:49.504Z,48.37
2023-05-05T23:46:20.329Z,48.34
2023-05-05T23:48:51.400Z,48.34
2023-05-05T23:51:22.429Z,48.31
2023-05-05T23:53:53.171Z,48.42
2023-05-05T23:56:24.220Z,48.15
2023-05-05T23:58:55.437Z,48.28
